Time;durP1;ratioP1;P1;durP2;ratioP2;P2;SDS_P1;SDS_P2;PMS_P1;PMS_P2;Temp;Humidity;BMP_temperature;BMP_pressure;BME280_temperature;BME280_humidity;BME280_pressure;Samples;Min_cycle;Max_cycle;Signal;HPM_P1;HPM_P2
2021/05/29 00:01:30;;;;;;;15.38;3.00;;;;;;;20.15;59.70;100879.72;5069163;28;20071;-66
2021/05/29 00:03:57;;;;;;;12.07;3.15;;;;;;;19.92;60.29;100882.03;5071196;28;20037;-66
2021/05/29 00:06:24;;;;;;;6.75;2.75;;;;;;;19.87;60.39;100881.25;5070831;28;20162;-66
2021/05/29 00:08:51;;;;;;;13.60;3.70;;;;;;;19.94;60.36;100882.00;5070295;28;20119;-66
2021/05/29 00:11:18;;;;;;;12.57;2.83;;;;;;;20.08;60.09;100879.91;5071056;28;20050;-66
2021/05/29 00:13:45;;;;;;;11.27;2.92;;;;;;;20.18;59.87;100879.66;5070063;28;20064;-66
2021/05/29 00:16:13;;;;;;;9.90;2.53;;;;;;;20.12;60.13;100886.97;5070590;28;20045;-66
2021/05/29 00:18:41;;;;;;;10.35;2.35;;;;;;;19.94;60.60;100890.03;5060731;28;20052;-67
2021/05/29 00:21:08;;;;;;;9.00;3.28;;;;;;;19.92;60.84;100889.19;5070155;28;20045;-66
2021/05/29 00:23:36;;;;;;;9.80;2.78;;;;;;;20.01;60.93;100889.88;5070876;28;20506;-66
2021/05/29 00:26:03;;;;;;;11.95;3.03;;;;;;;20.06;60.74;100892.47;5070806;28;20054;-66
2021/05/29 00:28:30;;;;;;;12.52;3.25;;;;;;;20.09;60.62;100895.06;5070172;28;20124;-67
2021/05/29 00:30:57;;;;;;;12.48;3.15;;;;;;;20.12;60.35;100889.66;5070415;28;20508;-66
2021/05/29 00:33:24;;;;;;;9.82;2.40;;;;;;;20.13;60.24;100889.63;5069757;28;20065;-67
2021/05/29 00:35:53;;;;;;;11.27;2.60;;;;;;;20.09;60.12;100898.63;5070264;28;20107;-66
2021/05/29 00:38:20;;;;;;;11.25;3.08;;;;;;;20.05;60.17;100906.75;5070097;28;20457;-66
2021/05/29 00:40:47;;;;;;;10.15;2.55;;;;;;;19.95;60.25;100906.09;5070507;28;20033;-66
2021/05/29 00:43:14;;;;;;;8.43;2.67;;;;;;;19.74;60.96;100895.81;5069163;28;20041;-66
2021/05/29 00:45:41;;;;;;;12.85;3.00;;;;;;;19.79;61.02;100897.47;5068499;28;20036;-66
2021/05/29 00:48:09;;;;;;;10.57;2.88;;;;;;;19.82;60.91;100889.34;5070056;28;20123;-67
2021/05/29 00:50:47;;;;;;;10.27;2.70;;;;;;;19.82;61.15;100896.53;5069312;28;20052;-66
2021/05/29 00:53:17;;;;;;;10.73;2.80;;;;;;;19.88;60.83;100889.25;5069552;28;20040;-66
2021/05/29 00:55:44;;;;;;;6.10;2.80;;;;;;;19.58;61.41;100902.34;5069036;28;20563;-66
2021/05/29 00:58:11;;;;;;;8.35;2.60;;;;;;;19.58;61.63;100899.66;5069741;28;20116;-66
2021/05/29 01:00:39;;;;;;;14.93;3.55;;;;;;;19.53;61.58;100897.09;5067932;28;20036;-66
2021/05/29 01:03:06;;;;;;;11.35;3.25;;;;;;;19.60;61.42;100896.06;5069786;28;20071;-66
2021/05/29 01:05:33;;;;;;;10.95;2.78;;;;;;;19.66;61.21;100912.00;5069927;28;20395;-67
2021/05/29 01:08:00;;;;;;;11.50;2.45;;;;;;;19.70;61.13;100912.81;5069781;28;20071;-66
2021/05/29 01:10:28;;;;;;;12.70;2.85;;;;;;;19.59;61.52;100913.03;5069351;28;20051;-66
2021/05/29 01:12:58;;;;;;;13.18;2.65;;;;;;;19.52;61.75;100908.72;5069258;28;20074;-65
2021/05/29 01:15:29;;;;;;;11.55;2.50;;;;;;;19.58;61.77;100902.34;5069867;28;20607;-66
2021/05/29 01:17:56;;;;;;;12.90;2.80;;;;;;;19.57;61.55;100912.19;5068874;28;20051;-66
2021/05/29 01:20:23;;;;;;;7.03;2.50;;;;;;;19.39;62.00;100920.53;5069359;28;20065;-66
2021/05/29 01:22:53;;;;;;;8.52;2.83;;;;;;;19.40;62.03;100914.25;5068933;28;20044;-66
2021/05/29 01:25:22;;;;;;;14.20;2.53;;;;;;;19.46;62.12;100903.47;5069390;28;20128;-66
2021/05/29 01:27:57;;;;;;;10.90;2.70;;;;;;;19.52;62.13;100911.38;5069027;28;20094;-66
2021/05/29 01:30:23;;;;;;;;;;;;;;;19.47;61.91;100907.91;5069532;28;20058;-66
2021/05/29 01:32:51;;;;;;;9.13;2.67;;;;;;;19.49;61.90;100908.78;5069285;28;20011;-66
2021/05/29 01:35:18;;;;;;;9.00;2.92;;;;;;;19.45;62.03;100905.22;5069510;28;20071;-66
2021/05/29 01:37:46;;;;;;;9.23;2.58;;;;;;;19.46;62.21;100898.13;5068662;28;20029;-66
2021/05/29 01:40:15;;;;;;;9.98;2.42;;;;;;;19.49;62.12;100901.59;5069174;28;20064;-66
2021/05/29 01:42:45;;;;;;;10.38;2.70;;;;;;;19.36;62.36;100915.25;5049316;28;20072;-66
2021/05/29 01:45:13;;;;;;;10.25;2.85;;;;;;;19.28;62.75;100912.69;5069207;28;20036;-66
2021/05/29 01:47:43;;;;;;;9.40;2.47;;;;;;;19.36;62.54;100904.53;5069327;28;20036;-66
2021/05/29 01:50:13;;;;;;;9.80;2.65;;;;;;;19.33;62.39;100909.94;5051472;28;20052;-66
2021/05/29 01:52:53;;;;;;;7.45;2.63;;;;;;;19.27;62.56;100910.03;5067848;28;20036;-66
2021/05/29 01:55:23;;;;;;;10.32;2.65;;;;;;;19.13;62.94;100922.78;5069189;28;20063;-66
2021/05/29 01:57:50;;;;;;;12.52;3.03;;;;;;;19.05;63.17;100925.56;5069158;28;20054;-66
2021/05/29 02:00:20;;;;;;;14.20;2.95;;;;;;;19.07;63.37;100934.47;5068886;28;20131;-67
2021/05/29 02:02:47;;;;;;;8.70;2.50;;;;;;;19.11;63.33;100934.38;5067623;28;20039;-67
2021/05/29 02:05:17;;;;;;;8.75;2.70;;;;;;;19.21;62.90;100926.22;5071580;28;20036;-65
2021/05/29 02:07:45;;;;;;;8.13;2.55;;;;;;;19.24;62.59;100934.16;5056104;28;20051;-66
2021/05/29 02:10:16;;;;;;;13.10;2.88;;;;;;;19.19;62.50;100939.63;5072476;28;20118;-66
2021/05/29 02:12:45;;;;;;;8.35;2.95;;;;;;;19.24;62.46;100931.50;5073062;28;20064;-66
2021/05/29 02:15:15;;;;;;;9.02;2.90;;;;;;;19.22;62.68;100930.66;5072880;28;20120;-66
2021/05/29 02:17:42;;;;;;;10.77;2.90;;;;;;;19.18;62.87;100927.13;5053071;28;20044;-66
2021/05/29 02:20:10;;;;;;;9.38;2.50;;;;;;;19.18;62.73;100927.13;5057097;28;20492;-66
2021/05/29 02:22:38;;;;;;;10.45;2.95;;;;;;;19.24;62.59;100932.38;5072556;28;20053;-66
2021/05/29 02:25:07;;;;;;;12.48;2.80;;;;;;;19.24;62.87;100929.69;5072791;28;20459;-66
2021/05/29 02:27:35;;;;;;;11.10;2.92;;;;;;;19.09;63.18;100932.66;5072405;28;20127;-66
2021/05/29 02:30:06;;;;;;;6.03;2.60;;;;;;;18.95;64.03;100935.56;5073097;28;20472;-66
2021/05/29 02:32:32;;;;;;;10.02;3.28;;;;;;;19.00;63.72;100928.34;5072544;28;20044;-66
2021/05/29 02:35:00;;;;;;;10.80;2.60;;;;;;;19.02;63.63;100931.88;5072424;28;20068;-66
2021/05/29 02:37:27;;;;;;;9.68;2.95;;;;;;;19.01;63.54;100930.09;5072545;28;20699;-66
2021/05/29 02:39:54;;;;;;;10.00;2.50;;;;;;;18.97;63.52;100939.06;5072531;28;20072;-66
2021/05/29 02:42:21;;;;;;;9.10;3.33;;;;;;;18.81;63.80;100932.22;5072340;28;20123;-67
2021/05/29 02:44:48;;;;;;;8.73;3.08;;;;;;;18.81;63.91;100934.00;5072651;28;20032;-66
2021/05/29 02:47:16;;;;;;;9.93;2.55;;;;;;;18.74;64.07;100935.88;5072263;28;20036;-66
2021/05/29 02:49:43;;;;;;;10.25;2.50;;;;;;;18.81;63.97;100931.31;5071930;28;20572;-66
2021/05/29 02:52:10;;;;;;;9.02;2.75;;;;;;;18.88;63.75;100943.69;5072218;28;20601;-66
2021/05/29 02:54:41;;;;;;;8.98;2.92;;;;;;;18.91;63.60;100944.53;5071625;28;20131;-66
2021/05/29 02:57:09;;;;;;;11.45;2.75;;;;;;;18.88;63.41;100944.59;5071142;28;20051;-66
2021/05/29 02:59:36;;;;;;;11.70;3.03;;;;;;;18.84;63.42;100956.22;5071862;28;20048;-66
2021/05/29 03:02:04;;;;;;;8.20;2.65;;;;;;;18.81;63.59;100950.94;5072354;28;20047;-66
2021/05/29 03:04:32;;;;;;;9.02;2.92;;;;;;;18.80;63.68;100949.16;5072176;28;20049;-67
2021/05/29 03:06:59;;;;;;;13.25;2.72;;;;;;;18.77;63.82;100951.91;5071137;28;20044;-66
2021/05/29 03:09:26;;;;;;;11.02;2.83;;;;;;;18.75;64.14;100959.06;5071374;28;20135;-66
2021/05/29 03:11:53;;;;;;;14.35;3.80;;;;;;;18.82;64.16;100962.53;5072311;28;20507;-66
2021/05/29 03:14:20;;;;;;;10.98;2.90;;;;;;;18.72;64.31;100959.09;5071646;28;20190;-66
2021/05/29 03:16:49;;;;;;;10.95;2.47;;;;;;;18.58;65.02;100969.09;5069756;28;20037;-66
2021/05/29 03:19:17;;;;;;;14.68;3.28;;;;;;;18.67;65.02;100977.00;5071788;28;20500;-66
2021/05/29 03:21:45;;;;;;;11.27;2.60;;;;;;;18.66;65.08;100985.91;5071735;28;20048;-66
2021/05/29 03:24:13;;;;;;;8.02;2.33;;;;;;;18.68;65.29;100982.31;5057847;28;20123;-66
2021/05/29 03:26:40;;;;;;;9.18;3.10;;;;;;;18.74;65.20;100973.34;5071209;28;20053;-66
2021/05/29 03:29:08;;;;;;;11.98;3.25;;;;;;;18.82;64.75;100974.09;5071752;28;20090;-66
2021/05/29 03:31:35;;;;;;;11.98;3.22;;;;;;;18.92;64.38;100978.41;5070796;28;20115;-66
2021/05/29 03:34:02;;;;;;;13.15;3.20;;;;;;;19.07;63.87;100988.88;5072093;28;20121;-66
2021/05/29 03:36:29;;;;;;;9.20;2.65;;;;;;;19.19;63.81;100985.13;5071289;28;20120;-66
2021/05/29 03:38:57;;;;;;;11.02;2.75;;;;;;;19.31;63.65;100982.22;5071174;28;20056;-66
2021/05/29 03:41:25;;;;;;;10.18;3.10;;;;;;;19.45;63.88;100974.84;5071302;28;20111;-66
2021/05/29 03:43:52;;;;;;;11.93;2.75;;;;;;;19.64;64.10;100972.75;5071195;28;20127;-66
2021/05/29 03:46:19;;;;;;;9.35;2.88;;;;;;;19.76;64.38;100974.31;5071157;28;20522;-67
2021/05/29 03:48:46;;;;;;;10.13;2.95;;;;;;;19.95;64.39;100974.88;5070806;28;20459;-66
2021/05/29 03:51:13;;;;;;;9.75;2.92;;;;;;;20.09;64.67;100973.66;5070789;28;20044;-66
2021/05/29 03:53:40;;;;;;;11.48;3.15;;;;;;;20.28;64.68;100974.22;5071080;28;20064;-66
2021/05/29 03:56:08;;;;;;;8.65;2.40;;;;;;;20.49;64.42;100971.06;5070604;28;20047;-66
2021/05/29 03:58:35;;;;;;;10.30;2.63;;;;;;;20.63;64.16;100958.25;5070553;28;20116;-66
2021/05/29 04:01:02;;;;;;;11.45;2.28;;;;;;;20.72;64.00;100973.25;5071392;28;20088;-66
2021/05/29 04:03:29;;;;;;;14.13;3.20;;;;;;;20.81;63.78;100974.84;5071139;28;20048;-66
2021/05/29 04:05:57;;;;;;;16.35;5.82;;;;;;;20.99;63.63;100975.31;5070531;28;20404;-66
2021/05/29 04:08:24;;;;;;;13.45;3.60;;;;;;;20.99;63.10;100975.31;5070476;28;20116;-67
2021/05/29 04:10:51;;;;;;;10.02;2.47;;;;;;;20.99;63.27;100980.69;5070513;28;20408;-66
2021/05/29 04:13:19;;;;;;;11.23;3.42;;;;;;;21.17;63.47;100978.50;5070307;28;20584;-66
2021/05/29 04:15:46;;;;;;;13.80;3.90;;;;;;;21.43;63.09;100976.03;5070568;28;20053;-66
2021/05/29 04:18:14;;;;;;;9.93;2.92;;;;;;;21.72;62.74;100973.50;5070602;28;20124;-67
2021/05/29 04:20:41;;;;;;;9.57;2.65;;;;;;;21.95;62.89;100970.16;5070441;28;20463;-66
2021/05/29 04:23:09;;;;;;;11.73;2.25;;;;;;;22.22;62.29;100969.41;5070573;28;20511;-66
2021/05/29 04:25:35;;;;;;;7.70;2.90;;;;;;;22.53;62.13;100971.19;5070716;28;20595;-66
2021/05/29 04:28:03;;;;;;;12.15;2.92;;;;;;;22.85;61.78;100976.47;5069658;28;20049;-66
2021/05/29 04:30:31;;;;;;;11.50;2.80;;;;;;;23.17;61.43;100972.75;5070446;28;20128;-66
2021/05/29 04:32:58;;;;;;;13.80;2.80;;;;;;;23.44;61.08;100981.72;5070632;28;20040;-67
2021/05/29 04:35:27;;;;;;;10.70;3.33;;;;;;;23.74;60.65;100979.84;5063352;28;20195;-66
2021/05/29 04:37:54;;;;;;;12.77;2.65;;;;;;;24.02;60.23;100986.03;5063327;28;20029;-66
2021/05/29 04:40:25;;;;;;;12.48;2.88;;;;;;;24.30;59.90;100985.91;5056454;28;20786;-66
2021/05/29 04:42:53;;;;;;;12.02;2.40;;;;;;;24.56;59.57;100988.47;5067375;28;20122;-66
2021/05/29 04:45:21;;;;;;;10.52;2.10;;;;;;;24.87;59.06;100987.31;5063084;28;20079;-66
2021/05/29 04:47:51;;;;;;;9.77;2.70;;;;;;;25.16;58.15;100996.94;5056845;28;20046;-66
2021/05/29 04:50:18;;;;;;;8.60;1.85;;;;;;;25.47;57.31;100994.72;5052795;28;20053;-66
2021/05/29 04:52:46;;;;;;;12.65;2.28;;;;;;;25.71;56.96;100995.56;5068438;28;20083;-66
2021/05/29 04:55:14;;;;;;;10.13;2.45;;;;;;;26.03;56.02;100994.13;5069716;28;20236;-66
2021/05/29 04:57:43;;;;;;;15.23;2.30;;;;;;;26.15;54.48;100994.47;5053287;28;20476;-66
2021/05/29 05:00:13;;;;;;;14.25;3.38;;;;;;;26.30;54.00;100992.94;5058999;28;20530;-66
2021/05/29 05:02:41;;;;;;;12.57;2.65;;;;;;;26.38;53.97;100990.75;5067658;28;20441;-66
2021/05/29 05:05:11;;;;;;;14.20;2.85;;;;;;;26.63;53.48;101000.44;5061448;28;20125;-66
2021/05/29 05:07:38;;;;;;;15.82;2.72;;;;;;;26.94;52.45;100998.94;5069482;28;20040;-66
2021/05/29 05:10:06;;;;;;;12.95;3.00;;;;;;;27.20;52.27;101010.34;5065357;28;20130;-66
2021/05/29 05:12:33;;;;;;;12.88;2.20;;;;;;;27.50;51.47;101011.53;5057131;28;20043;-66
2021/05/29 05:15:00;;;;;;;9.25;2.30;;;;;;;27.82;50.82;101011.75;5050343;28;20052;-66
2021/05/29 05:17:27;;;;;;;12.13;2.10;;;;;;;28.07;50.31;101015.81;5053012;28;20029;-65
2021/05/29 05:19:55;;;;;;;8.45;2.33;;;;;;;28.30;49.04;101014.59;5058984;28;20032;-66
2021/05/29 05:22:23;;;;;;;12.32;2.20;;;;;;;28.48;48.69;101019.06;5052318;28;20043;-66
2021/05/29 05:24:50;;;;;;;11.38;2.42;;;;;;;28.65;48.30;101015.41;5053208;28;20045;-66
2021/05/29 05:27:17;;;;;;;15.07;2.45;;;;;;;28.89;47.50;101030.38;5066774;28;20065;-66
2021/05/29 05:29:44;;;;;;;9.88;2.10;;;;;;;29.15;46.95;101033.44;5062706;28;20130;-66
2021/05/29 05:32:11;;;;;;;6.38;1.83;;;;;;;29.41;45.92;101038.28;5063415;28;20043;-66
2021/05/29 05:34:38;;;;;;;8.25;2.28;;;;;;;29.57;44.85;101038.28;5063127;28;20568;-66
2021/05/29 05:37:06;;;;;;;10.40;2.28;;;;;;;29.80;44.04;101039.66;5060880;28;20041;-66
2021/05/29 05:39:36;;;;;;;6.70;2.03;;;;;;;30.07;43.53;101038.88;5042201;28;20060;-67
2021/05/29 05:42:04;;;;;;;11.23;1.95;;;;;;;30.20;42.90;101043.56;5063907;28;20041;-67
2021/05/29 05:44:31;;;;;;;7.60;2.75;;;;;;;30.34;42.59;101043.59;5053258;28;20029;-66
2021/05/29 05:46:58;;;;;;;5.88;2.03;;;;;;;30.56;41.58;101038.59;5050945;28;20519;-67
2021/05/29 05:49:25;;;;;;;9.55;2.55;;;;;;;30.69;40.87;101045.03;5058194;28;20062;-67
2021/05/29 05:51:52;;;;;;;8.88;2.13;;;;;;;30.89;40.81;101039.16;5065050;28;20488;-68
2021/05/29 05:54:19;;;;;;;7.85;2.15;;;;;;;30.99;40.58;101038.56;5069233;28;20509;-67
2021/05/29 05:56:47;;;;;;;7.18;2.17;;;;;;;31.01;39.68;101036.59;5064557;28;20052;-67
2021/05/29 05:59:14;;;;;;;8.40;2.47;;;;;;;31.10;39.93;101049.69;5066813;28;20060;-67
2021/05/29 06:01:41;;;;;;;6.80;2.47;;;;;;;31.23;39.64;101054.25;5050150;28;20129;-67
2021/05/29 06:04:08;;;;;;;7.63;1.88;;;;;;;31.25;39.76;101060.47;5058450;28;20438;-67
2021/05/29 06:06:35;;;;;;;6.75;2.17;;;;;;;31.27;39.30;101060.38;5059964;28;20045;-67
2021/05/29 06:09:02;;;;;;;5.50;2.10;;;;;;;31.26;38.85;101062.22;5049303;28;20053;-67
2021/05/29 06:11:29;;;;;;;6.10;2.05;;;;;;;31.24;38.64;101068.78;5062968;28;20117;-67
2021/05/29 06:19:26;;;;;;;9.65;2.70;;;;;;;31.46;37.87;101068.22;5054018;28;20390;-67
2021/05/29 06:21:56;;;;;;;8.93;2.03;;;;;;;31.39;38.05;101072.31;5052171;28;20037;-67
2021/05/29 06:24:27;;;;;;;8.10;2.20;;;;;;;31.54;36.99;101079.50;5049123;28;20082;-66
2021/05/29 06:26:55;;;;;;;6.63;2.15;;;;;;;31.66;36.61;101075.97;5054466;28;20040;-67
2021/05/29 06:29:24;;;;;;;7.45;2.10;;;;;;;31.78;35.91;101075.16;5066763;28;20033;-67
2021/05/29 06:31:50;;;;;;;4.97;1.90;;;;;;;31.76;35.75;101077.13;5057748;28;20515;-67
2021/05/29 06:34:18;;;;;;;4.22;1.70;;;;;;;31.74;34.98;101086.38;5062630;28;20713;-67
2021/05/29 06:36:45;;;;;;;5.63;1.80;;;;;;;31.58;35.32;101081.03;5064356;28;20033;-67
2021/05/29 06:39:13;;;;;;;5.43;2.08;;;;;;;31.62;35.05;101075.31;5045704;28;20141;-67
2021/05/29 06:41:41;;;;;;;6.55;1.98;;;;;;;31.60;34.75;101076.38;5046882;28;20029;-67
2021/05/29 06:44:09;;;;;;;4.53;1.90;;;;;;;31.46;34.84;101077.28;5066636;28;20381;-67
2021/05/29 06:46:38;;;;;;;7.35;2.15;;;;;;;31.60;34.64;101070.94;5062494;28;20051;-67
2021/05/29 06:49:06;;;;;;;7.80;1.98;;;;;;;31.67;34.31;101075.00;5056403;28;20443;-67
2021/05/29 06:51:38;;;;;;;4.70;2.08;;;;;;;31.79;34.37;101079.63;5056892;28;20041;-66
2021/05/29 06:54:13;;;;;;;8.75;1.65;;;;;;;31.97;33.56;101082.94;5067298;28;20044;-66
2021/05/29 06:59:25;;;;;;;5.10;1.73;;;;;;;31.62;33.15;101083.50;5062660;28;20060;-67
2021/05/29 07:01:53;;;;;;;4.97;1.60;;;;;;;31.56;32.74;101081.16;5060823;28;20072;-66
2021/05/29 07:04:21;;;;;;;6.40;1.85;;;;;;;31.77;32.22;101086.19;5058126;28;20179;-67
2021/05/29 07:06:49;;;;;;;4.03;1.60;;;;;;;31.79;31.33;101086.94;5066776;28;20037;-67
2021/05/29 07:09:18;;;;;;;5.88;1.60;;;;;;;31.53;31.68;101083.19;5065746;28;20542;-65
2021/05/29 07:11:45;;;;;;;4.57;1.95;;;;;;;31.39;31.98;101080.50;5056392;28;20064;-65
2021/05/29 07:14:13;;;;;;;2.03;1.27;;;;;;;31.56;31.78;101083.00;5065227;28;20488;-66
2021/05/29 07:16:40;;;;;;;4.97;1.80;;;;;;;31.82;31.12;101087.63;5062474;28;20554;-65
2021/05/29 07:19:08;;;;;;;6.70;1.88;;;;;;;31.91;30.71;101083.38;5064115;28;20056;-65
2021/05/29 07:21:35;;;;;;;5.22;1.48;;;;;;;31.94;31.03;101088.66;5056281;28;20041;-65
2021/05/29 07:24:03;;;;;;;5.43;1.85;;;;;;;32.16;30.46;101088.97;5051972;28;20408;-65
2021/05/29 07:26:30;;;;;;;4.43;1.40;;;;;;;32.19;30.06;101093.31;5056049;28;20044;-65
2021/05/29 07:28:57;;;;;;;3.55;1.38;;;;;;;31.98;30.33;101103.84;5060910;28;20052;-65
2021/05/29 07:31:24;;;;;;;4.07;1.60;;;;;;;32.04;30.38;101100.69;5054214;28;20064;-65
2021/05/29 07:33:54;;;;;;;5.88;1.77;;;;;;;32.21;30.09;101100.44;5050638;28;20488;-65
2021/05/29 07:36:22;;;;;;;3.47;1.48;;;;;;;32.29;29.96;101099.91;5051752;28;20499;-66
2021/05/29 07:38:49;;;;;;;1.85;1.20;;;;;;;32.33;29.95;101101.44;5070908;28;20120;-66
2021/05/29 07:41:16;;;;;;;2.60;1.40;;;;;;;32.06;30.00;101115.13;5067531;28;20041;-68
2021/05/29 07:43:44;;;;;;;5.43;1.90;;;;;;;32.21;30.03;101113.25;5067520;28;20040;-67
2021/05/29 07:46:11;;;;;;;3.70;1.30;;;;;;;32.32;30.07;101111.50;5070937;28;20083;-67
2021/05/29 07:48:38;;;;;;;3.05;1.35;;;;;;;32.15;29.52;101114.53;5053985;28;20124;-67
2021/05/29 07:51:06;;;;;;;3.92;1.60;;;;;;;32.11;29.88;101112.94;5060331;28;20040;-67
2021/05/29 07:53:36;;;;;;;7.45;1.40;;;;;;;32.41;29.75;101105.41;5066388;28;20082;-68
2021/05/29 07:56:07;;;;;;;3.78;1.40;;;;;;;32.48;29.58;101102.25;5071338;28;20059;-67
2021/05/29 07:58:35;;;;;;;4.20;1.27;;;;;;;32.13;29.67;101104.66;5069113;28;20039;-67
2021/05/29 08:01:02;;;;;;;4.18;1.50;;;;;;;32.12;29.64;101102.91;5060389;28;20059;-67
2021/05/29 08:03:30;;;;;;;2.80;1.23;;;;;;;32.32;29.69;101092.38;5056657;28;20496;-67
2021/05/29 08:05:57;;;;;;;3.70;1.63;;;;;;;32.17;29.99;101100.75;5050903;28;20045;-67
2021/05/29 08:08:25;;;;;;;4.20;2.00;;;;;;;32.16;30.05;101099.91;5054243;28;20064;-67
2021/05/29 08:10:56;;;;;;;6.07;1.88;;;;;;;31.88;30.63;101106.34;5058100;28;20048;-67
2021/05/29 08:13:23;;;;;;;5.50;1.67;;;;;;;31.88;31.08;101108.19;5071009;28;20531;-67
2021/05/29 08:15:52;;;;;;;4.47;1.40;;;;;;;32.15;30.77;101106.34;5065889;28;20162;-67
2021/05/29 08:18:19;;;;;;;4.47;1.70;;;;;;;32.24;30.77;101118.47;5064475;28;20032;-68
2021/05/29 08:20:48;;;;;;;4.07;1.65;;;;;;;32.41;31.13;101115.47;5065712;28;20512;-67
2021/05/29 08:23:15;;;;;;;5.13;1.88;;;;;;;32.60;31.02;101121.38;5067326;28;20039;-67
2021/05/29 08:25:42;;;;;;;5.75;1.55;;;;;;;32.81;30.70;101122.63;5070166;28;20072;-67
2021/05/29 08:28:10;;;;;;;4.72;1.70;;;;;;;32.83;30.51;101123.38;5066075;28;20040;-67
2021/05/29 08:30:38;;;;;;;4.47;1.67;;;;;;;32.72;30.44;101122.41;5049402;28;20124;-67
2021/05/29 08:33:06;;;;;;;3.70;1.30;;;;;;;32.67;30.13;101122.75;5061413;28;20047;-67
2021/05/29 08:35:34;;;;;;;3.83;1.45;;;;;;;32.54;29.64;101120.94;5050361;28;20041;-67
2021/05/29 08:38:01;;;;;;;3.35;1.42;;;;;;;32.05;30.21;101116.97;5060919;28;20123;-67
2021/05/29 08:40:28;;;;;;;5.55;1.67;;;;;;;32.12;30.72;101114.69;5065161;28;20128;-67
2021/05/29 08:42:55;;;;;;;5.93;1.42;;;;;;;32.35;29.63;101116.78;5065702;28;20595;-67
2021/05/29 08:45:23;;;;;;;5.05;2.33;;;;;;;32.15;30.27;101125.47;5064951;28;20063;-65
2021/05/29 08:47:51;;;;;;;7.55;1.52;;;;;;;31.77;30.24;101111.63;5055554;28;20044;-65
2021/05/29 08:50:19;;;;;;;4.82;1.50;;;;;;;31.61;30.80;101110.91;5058726;28;20051;-65
2021/05/29 08:52:47;;;;;;;4.03;1.73;;;;;;;31.50;31.45;101113.44;5064622;28;20603;-65
2021/05/29 08:55:16;;;;;;;2.75;1.48;;;;;;;31.91;30.79;101107.97;5067899;28;20029;-65
2021/05/29 08:57:44;;;;;;;4.88;1.40;;;;;;;31.85;30.69;101117.44;5060581;28;20036;-65
2021/05/29 09:00:15;;;;;;;4.82;1.30;;;;;;;31.92;30.30;101110.59;5064164;28;20111;-65
2021/05/29 09:03:04;;;;;;;5.43;1.95;;;;;;;31.91;30.79;101105.22;5064190;28;20044;-65
2021/05/29 09:05:39;;;;;;;4.72;1.65;;;;;;;32.04;30.76;101109.75;5070002;28;20445;-64
2021/05/29 09:08:08;;;;;;;2.85;1.40;;;;;;;32.21;30.57;101110.50;5064097;28;20404;-67
2021/05/29 09:10:38;;;;;;;4.03;1.67;;;;;;;32.29;30.75;101102.66;5063366;28;20560;-65
2021/05/29 09:13:12;;;;;;;5.43;1.40;;;;;;;32.33;30.48;101106.91;5053141;28;20523;-65
2021/05/29 09:15:48;;;;;;;5.45;1.40;;;;;;;31.94;30.21;101105.03;5062331;28;20400;-65
2021/05/29 09:18:37;;;;;;;4.97;1.50;;;;;;;32.04;30.72;101103.41;5068986;28;20463;-65
2021/05/29 09:21:34;;;;;;;3.92;1.50;;;;;;;32.13;29.87;101104.66;5058550;28;20150;-65
2021/05/29 09:24:04;;;;;;;5.15;1.30;;;;;;;32.06;30.66;101109.66;5063670;28;20041;-65
2021/05/29 09:26:43;;;;;;;5.72;1.67;;;;;;;32.10;30.14;101113.06;5062325;28;20518;-65
2021/05/29 09:29:19;;;;;;;3.80;1.40;;;;;;;32.22;30.33;101113.13;5049152;28;20045;-65
2021/05/29 09:31:58;;;;;;;2.60;1.20;;;;;;;32.20;29.59;101112.34;5052326;28;20123;-65
2021/05/29 09:34:37;;;;;;;3.72;1.52;;;;;;;32.18;30.06;101108.84;5049659;28;20055;-65
2021/05/29 09:37:06;;;;;;;4.93;1.85;;;;;;;32.13;30.74;101101.91;5055855;28;20056;-65
2021/05/29 09:39:33;;;;;;;4.03;1.40;;;;;;;32.06;30.82;101107.81;5069651;28;20116;-65
2021/05/29 09:42:01;;;;;;;6.18;1.60;;;;;;;32.25;31.48;101101.97;5064319;28;20067;-65
2021/05/29 09:44:30;;;;;;;5.30;1.83;;;;;;;32.25;31.57;101101.97;5068973;28;20048;-65
2021/05/29 09:46:58;;;;;;;4.22;1.45;;;;;;;32.01;32.56;101104.53;5064084;28;20127;-65
2021/05/29 09:49:27;;;;;;;5.60;1.80;;;;;;;31.98;31.67;101101.97;5058102;28;20504;-65
2021/05/29 09:51:55;;;;;;;6.68;1.63;;;;;;;31.95;31.58;101104.06;5053867;28;20040;-65
2021/05/29 09:54:25;;;;;;;6.82;1.80;;;;;;;32.33;30.98;101093.25;5069370;28;20064;-65
2021/05/29 09:57:03;;;;;;;4.90;1.58;;;;;;;32.61;30.50;101090.31;5065897;28;20040;-65
2021/05/29 09:59:30;;;;;;;3.35;1.27;;;;;;;32.69;30.08;101093.41;5056251;28;20043;-68
2021/05/29 10:01:58;;;;;;;4.88;1.63;;;;;;;32.53;30.13;101086.38;5084590;28;20037;-65
2021/05/29 10:04:43;;;;;;;4.35;1.50;;;;;;;32.53;29.64;101087.25;5048401;28;20114;-65
2021/05/29 10:07:13;;;;;;;4.72;1.80;;;;;;;32.45;29.37;101084.19;5050688;28;20112;-65
2021/05/29 10:09:41;;;;;;;3.03;1.30;;;;;;;32.32;29.49;101088.75;5048946;28;20041;-65
2021/05/29 10:12:08;;;;;;;3.42;1.33;;;;;;;32.24;29.54;101083.81;5080667;28;20120;-65
2021/05/29 10:14:37;;;;;;;5.72;1.58;;;;;;;32.09;29.70;101079.41;5068077;28;20501;-66
2021/05/29 10:17:06;;;;;;;3.47;1.38;;;;;;;32.11;28.98;101090.22;5063484;28;20112;-66
2021/05/29 10:19:33;;;;;;;3.42;1.55;;;;;;;32.03;30.06;101090.75;5065533;28;20487;-65
2021/05/29 10:22:05;;;;;;;2.22;1.25;;;;;;;31.89;29.85;101090.81;5069146;28;20084;-66
2021/05/29 10:24:33;;;;;;;5.65;2.33;;;;;;;31.83;30.19;101086.66;5054794;28;20377;-65
2021/05/29 10:27:06;;;;;;;3.35;1.35;;;;;;;31.70;29.86;101080.28;5057359;28;20048;-65
2021/05/29 10:29:34;;;;;;;3.60;1.60;;;;;;;31.52;30.63;101074.13;5061733;28;20103;-66
2021/05/29 10:32:12;;;;;;;4.45;1.60;;;;;;;31.44;31.05;101068.31;5072654;28;20084;-65
2021/05/29 10:34:59;;;;;;;5.07;1.45;;;;;;;31.44;30.86;101062.84;5068551;28;20045;-65
2021/05/29 10:37:34;;;;;;;4.22;1.70;;;;;;;31.36;30.88;101069.81;5052911;28;20079;-65
2021/05/29 10:40:23;;;;;;;4.35;1.60;;;;;;;31.31;31.21;101072.81;5054250;28;20045;-65
2021/05/29 10:43:13;;;;;;;4.82;1.88;;;;;;;31.27;31.26;101074.00;5067257;28;20051;-65
2021/05/29 10:46:03;;;;;;;5.07;2.05;;;;;;;31.19;31.76;101073.63;5055018;28;20048;-65
2021/05/29 10:48:30;;;;;;;5.15;1.63;;;;;;;31.25;31.56;101073.22;5069751;28;20090;-65
2021/05/29 10:51:00;;;;;;;3.92;1.73;;;;;;;31.25;31.85;101067.75;5072743;28;20556;-65
2021/05/29 10:53:42;;;;;;;7.07;1.70;;;;;;;31.20;31.34;101069.94;5059793;28;20033;-66
2021/05/29 10:56:27;;;;;;;3.08;1.90;;;;;;;31.07;31.56;101072.59;5052420;28;20505;-65
2021/05/29 10:59:04;;;;;;;6.50;1.80;;;;;;;31.20;31.37;101069.94;5058417;28;20037;-65
2021/05/29 11:02:05;;;;;;;4.57;1.83;;;;;;;31.38;30.92;101070.56;5052443;28;20041;-65
2021/05/29 11:04:33;;;;;;;6.05;2.03;;;;;;;31.53;30.56;101067.69;5048973;28;20044;-65
2021/05/29 11:07:21;;;;;;;3.65;1.85;;;;;;;31.74;29.85;101079.06;5064941;28;20049;-64
2021/05/29 11:09:52;;;;;;;4.15;1.15;;;;;;;31.46;29.60;101084.59;5078925;28;20043;-66
2021/05/29 11:12:22;;;;;;;3.17;1.52;;;;;;;31.38;29.42;101082.34;5066411;28;20511;-65
2021/05/29 11:14:55;;;;;;;5.57;1.33;;;;;;;31.56;29.09;101081.16;5067185;28;20120;-65
2021/05/29 11:17:24;;;;;;;4.47;2.05;;;;;;;31.62;29.86;101088.97;5072139;28;20037;-65
2021/05/29 11:20:13;;;;;;;3.35;1.20;;;;;;;31.66;29.34;101082.31;5066607;28;20033;-65
2021/05/29 11:22:46;;;;;;;4.25;1.35;;;;;;;31.72;29.38;101080.16;5058818;28;20041;-65
2021/05/29 11:25:17;;;;;;;4.32;1.40;;;;;;;31.85;29.61;101070.13;5070294;28;20407;-66
2021/05/29 11:27:47;;;;;;;4.25;1.55;;;;;;;32.24;29.60;101063.81;5057525;28;20569;-65
2021/05/29 11:30:16;;;;;;;3.95;1.30;;;;;;;32.29;29.18;101067.13;5055247;28;20055;-66
2021/05/29 11:32:53;;;;;;;4.07;1.75;;;;;;;32.08;29.93;101063.09;5065173;28;20033;-66
2021/05/29 11:35:32;;;;;;;4.13;2.25;;;;;;;31.72;31.45;101064.63;5054976;28;20043;-65
2021/05/29 11:38:11;;;;;;;6.10;2.22;;;;;;;31.39;32.36;101059.56;5050658;28;20075;-65
2021/05/29 11:40:43;;;;;;;4.68;1.92;;;;;;;31.38;32.23;101060.53;5058898;28;20052;-65